createdAt,value
2019-01-12T00:00:03.153Z,19.16
2019-01-12T00:01:03.315Z,16.56
2019-01-12T00:02:02.582Z,15.25
2019-01-12T00:03:03.503Z,19.48
2019-01-12T00:04:03.151Z,14.93
2019-01-12T00:05:03.233Z,16.36
2019-01-12T00:06:02.669Z,14.71
2019-01-12T00:07:02.703Z,15.02
2019-01-12T00:08:03.295Z,17.14
2019-01-12T00:09:02.926Z,20.04
2019-01-12T00:10:02.660Z,17.75
2019-01-12T00:11:02.823Z,15.68
2019-01-12T00:12:02.826Z,17.68
2019-01-12T00:13:03.090Z,16.69
2019-01-12T00:14:03.454Z,16.36
2019-01-12T00:15:02.586Z,17
2019-01-12T00:16:03.424Z,14.42
2019-01-12T00:17:03.144Z,16.34
2019-01-12T00:18:02.606Z,14.5
2019-01-12T00:19:03.384Z,15.82
2019-01-12T00:20:02.995Z,16.33
2019-01-12T00:21:02.777Z,15.52
2019-01-12T00:22:02.838Z,15.74
2019-01-12T00:23:02.950Z,21.26
2019-01-12T00:24:03.154Z,19.09
2019-01-12T00:25:03.393Z,18.34
2019-01-12T00:26:02.734Z,17.71
2019-01-12T00:27:03.015Z,17.39
2019-01-12T00:28:03.409Z,18.71
2019-01-12T00:29:02.482Z,16.79
2019-01-12T00:30:03.292Z,15.79
2019-01-12T00:31:02.984Z,15.79
2019-01-12T00:32:03.015Z,15.22
2019-01-12T00:33:03.180Z,16.92
2019-01-12T00:34:03.022Z,16.92
2019-01-12T00:35:03.278Z,16.83
2019-01-12T00:36:02.964Z,16.1
2019-01-12T00:37:03.439Z,16.1
2019-01-12T00:38:02.885Z,16.08
2019-01-12T00:39:03.196Z,15.99
2019-01-12T00:40:03.161Z,15.91
2019-01-12T00:41:03.294Z,14.92
2019-01-12T00:42:02.590Z,15.12
2019-01-12T00:43:03.285Z,15.26
2019-01-12T00:44:03.128Z,16.47
2019-01-12T00:45:03.514Z,19.42
2019-01-12T00:46:02.805Z,17.05
2019-01-12T00:47:02.824Z,18.46
2019-01-12T00:48:02.846Z,17.18
2019-01-12T00:49:02.693Z,15.99
2019-01-12T00:50:03.180Z,15.86
2019-01-12T00:51:02.799Z,13.31
2019-01-12T00:52:03.390Z,15.98
2019-01-12T00:53:02.812Z,16.05
2019-01-12T00:54:02.817Z,15.72
2019-01-12T00:55:02.886Z,16.23
2019-01-12T00:56:03.447Z,17.86
2019-01-12T00:57:02.983Z,17.68
2019-01-12T00:58:03.297Z,16.41
2019-01-12T00:59:02.605Z,18.26
2019-01-12T01:00:03.073Z,17.92
2019-01-12T01:01:02.710Z,18.86
2019-01-12T01:02:03.457Z,19.15
2019-01-12T01:03:03.114Z,17.25
2019-01-12T01:04:03.354Z,17.59
2019-01-12T01:05:02.990Z,18.64
2019-01-12T01:06:02.560Z,18.26
2019-01-12T01:07:02.757Z,16.77
2019-01-12T01:08:03.119Z,18.54
2019-01-12T01:09:02.543Z,20.12
2019-01-12T01:10:02.928Z,20.51
2019-01-12T01:11:03.430Z,19.17
2019-01-12T01:12:02.713Z,19.88
2019-01-12T01:13:02.880Z,21.31
2019-01-12T01:14:02.589Z,20.19
2019-01-12T01:15:02.998Z,21.52
2019-01-12T01:16:03.260Z,23.09
2019-01-12T01:17:02.838Z,18.62
2019-01-12T01:18:03.055Z,17.49
2019-01-12T01:19:02.967Z,19.81
2019-01-12T01:20:03.025Z,19.69
2019-01-12T01:21:03.430Z,20.85
2019-01-12T01:22:03.149Z,21.21
2019-01-12T01:23:02.773Z,21.21
2019-01-12T01:24:02.733Z,18.38
2019-01-12T01:25:03.063Z,17.64
2019-01-12T01:26:02.838Z,22.41
2019-01-12T01:27:03.475Z,20.94
2019-01-12T01:28:03.009Z,21.29
2019-01-12T01:29:03.212Z,22.85
2019-01-12T01:30:03.379Z,19.78
2019-01-12T01:31:03.193Z,18.36
2019-01-12T01:32:02.561Z,20.73
2019-01-12T01:33:03.426Z,20.94
2019-01-12T01:34:03.119Z,20.35
2019-01-12T01:35:03.475Z,21.15
2019-01-12T01:36:02.996Z,19.53
2019-01-12T01:37:02.558Z,20.99
2019-01-12T01:38:03.274Z,18.6
2019-01-12T01:39:02.809Z,15.52
2019-01-12T01:40:02.618Z,16.45
2019-01-12T01:41:03.437Z,17.99
2019-01-12T01:42:03.559Z,17.71
2019-01-12T01:43:03.015Z,19.88
2019-01-12T01:44:03.402Z,15.84
2019-01-12T01:45:03.045Z,22.35
2019-01-12T01:46:03.266Z,18.35
2019-01-12T01:47:02.464Z,18.82
2019-01-12T01:48:03.500Z,17.98
2019-01-12T01:49:02.523Z,20.37
2019-01-12T01:50:03.296Z,16.97
2019-01-12T01:51:03.509Z,18.3
2019-01-12T01:52:03.096Z,21.52
2019-01-12T01:53:02.661Z,20.66
2019-01-12T01:54:03.293Z,18.89
2019-01-12T01:55:03.649Z,20.35
2019-01-12T01:56:03.098Z,19
2019-01-12T01:57:03.183Z,16.26
2019-01-12T01:58:02.813Z,18.69
2019-01-12T01:59:03.421Z,20.72
2019-01-12T02:00:02.798Z,16.99
2019-01-12T02:01:03.344Z,17.51
2019-01-12T02:02:02.690Z,22.05
2019-01-12T02:03:03.492Z,16.94
2019-01-12T02:04:03.380Z,19.29
2019-01-12T02:05:02.974Z,20.11
2019-01-12T02:06:03.585Z,18.48
2019-01-12T02:07:02.812Z,20.45
2019-01-12T02:08:03.466Z,18.44
2019-01-12T02:09:02.520Z,21.69
2019-01-12T02:10:03.183Z,27.65
2019-01-12T02:11:03.384Z,27.65
2019-01-12T02:12:02.854Z,22.88
2019-01-12T02:13:02.979Z,19.94
2019-01-12T02:14:02.739Z,19.94
2019-01-12T02:15:03.047Z,20.68
2019-01-12T02:16:02.482Z,17.82
2019-01-12T02:17:03.104Z,17.24
2019-01-12T02:18:03.337Z,16.96
2019-01-12T02:19:02.544Z,17.52
2019-01-12T02:20:03.544Z,19.46
2019-01-12T02:21:02.800Z,19.86
2019-01-12T02:22:02.998Z,20.15
2019-01-12T02:23:02.642Z,18.86
2019-01-12T02:24:02.846Z,20.01
2019-01-12T02:25:03.448Z,19.81
2019-01-12T02:26:03.070Z,20.77
2019-01-12T02:27:03.132Z,20.99
2019-01-12T02:28:02.786Z,17.1
2019-01-12T02:29:03.234Z,20.34
2019-01-12T02:30:02.787Z,18.58
2019-01-12T02:31:03.020Z,16.89
2019-01-12T02:32:03.185Z,17.51
2019-01-12T02:33:03.392Z,17.32
2019-01-12T02:34:02.717Z,20.14
2019-01-12T02:35:03.318Z,16.19
2019-01-12T02:36:03.513Z,16.95
2019-01-12T02:37:03.360Z,17.51
2019-01-12T02:38:03.124Z,17.74
2019-01-12T02:39:03.306Z,17.86
2019-01-12T02:40:03.306Z,16.34
2019-01-12T02:41:03.038Z,18.49
2019-01-12T02:42:02.606Z,18.76
2019-01-12T02:43:03.433Z,15.08
2019-01-12T02:44:02.881Z,17.62
2019-01-12T02:45:03.029Z,16.81
2019-01-12T02:46:03.402Z,18.14
2019-01-12T02:47:03.249Z,17.87
2019-01-12T02:48:02.835Z,19.46
2019-01-12T02:49:02.997Z,21.6
2019-01-12T02:50:02.489Z,17.76
2019-01-12T02:51:02.392Z,14.41
2019-01-12T02:52:02.729Z,17.94
2019-01-12T02:53:03.496Z,18.18
2019-01-12T02:54:02.737Z,22.45
2019-01-12T02:55:08.426Z,17.91
2019-01-12T02:56:02.650Z,23.07
2019-01-12T02:57:03.362Z,20.97
2019-01-12T02:58:02.729Z,18.11
2019-01-12T02:59:03.457Z,18.3
2019-01-12T03:00:02.955Z,18.43
2019-01-12T03:01:01.570Z,19.39
2019-01-12T03:02:03.451Z,23.4
2019-01-12T03:03:02.799Z,23.4
2019-01-12T03:04:03.468Z,19.61
2019-01-12T03:05:02.746Z,22.89
2019-01-12T03:06:03.323Z,20.18
2019-01-12T03:07:02.775Z,20.31
2019-01-12T03:08:02.944Z,20.68
2019-01-12T03:09:02.503Z,20.59
2019-01-12T03:10:02.638Z,21.29
2019-01-12T03:11:02.384Z,22.02
2019-01-12T03:12:03.000Z,18.05
2019-01-12T03:13:02.600Z,20.31
2019-01-12T03:14:02.942Z,19.75
2019-01-12T03:15:02.756Z,21.01
2019-01-12T03:16:03.285Z,20.21
2019-01-12T03:17:02.857Z,22.34
2019-01-12T03:18:03.370Z,19.02
2019-01-12T03:19:03.451Z,21.45
2019-01-12T03:20:03.927Z,20.19
2019-01-12T03:21:03.395Z,19.58
2019-01-12T03:22:03.016Z,21.21
2019-01-12T03:23:02.620Z,18.76
2019-01-12T03:24:03.517Z,18.66
2019-01-12T03:25:03.020Z,18.68
2019-01-12T03:26:02.925Z,21.85
2019-01-12T03:27:02.887Z,23.99
2019-01-12T03:28:02.917Z,20.53
2019-01-12T03:29:02.671Z,20.51
2019-01-12T03:30:02.934Z,22.26
2019-01-12T03:31:02.871Z,20.32
2019-01-12T03:32:02.613Z,21.77
2019-01-12T03:33:02.766Z,22.15
2019-01-12T03:34:02.754Z,23.85
2019-01-12T03:35:02.672Z,22.37
2019-01-12T03:36:03.090Z,20.16
2019-01-12T03:37:02.875Z,25.17
2019-01-12T03:38:02.699Z,20.18
2019-01-12T03:39:03.366Z,22.09
2019-01-12T03:40:03.215Z,22.38
2019-01-12T03:41:03.477Z,22.63
2019-01-12T03:42:03.412Z,20.5
2019-01-12T03:43:02.925Z,21.57
2019-01-12T03:44:02.793Z,24.18
2019-01-12T03:45:03.482Z,19.5
2019-01-12T03:46:03.122Z,21.13
2019-01-12T03:47:02.711Z,22.42
2019-01-12T03:48:03.079Z,25.96
2019-01-12T03:49:03.249Z,23.02
2019-01-12T03:50:02.993Z,21.53
2019-01-12T03:51:03.076Z,21.53
2019-01-12T03:52:03.044Z,24.73
2019-01-12T03:53:03.425Z,24.16
2019-01-12T03:54:02.652Z,24.16
2019-01-12T03:55:03.575Z,22.1
2019-01-12T03:56:03.020Z,28.42
2019-01-12T03:57:02.514Z,24.35
2019-01-12T03:58:02.856Z,23.63
2019-01-12T03:59:03.175Z,22.26
2019-01-12T04:00:03.690Z,22.19
2019-01-12T04:01:02.553Z,23.07
2019-01-12T04:02:03.484Z,21.09
2019-01-12T04:03:03.057Z,23.42
2019-01-12T04:04:03.354Z,23.71
2019-01-12T04:05:03.389Z,23.31
2019-01-12T04:06:03.195Z,21.88
2019-01-12T04:07:03.365Z,26.26
2019-01-12T04:08:02.909Z,24.08
2019-01-12T04:09:03.111Z,24.89
2019-01-12T04:10:02.917Z,21.17
2019-01-12T04:11:03.066Z,24.14
2019-01-12T04:12:02.645Z,19.81
2019-01-12T04:13:03.054Z,24.06
2019-01-12T04:14:02.671Z,24.24
2019-01-12T04:15:03.313Z,24.15
2019-01-12T04:16:03.204Z,21.74
2019-01-12T04:17:03.164Z,22.38
2019-01-12T04:18:02.578Z,22.85
2019-01-12T04:19:03.567Z,22.49
2019-01-12T04:20:03.485Z,21.95
2019-01-12T04:21:02.786Z,23.29
2019-01-12T04:22:03.490Z,24.32
2019-01-12T04:23:02.631Z,26.3
2019-01-12T04:24:02.935Z,22.66
2019-01-12T04:25:03.312Z,24.61
2019-01-12T04:26:03.025Z,22.59
2019-01-12T04:27:03.313Z,23.58
2019-01-12T04:28:03.089Z,25.51
2019-01-12T04:29:02.983Z,23.33
2019-01-12T04:30:03.022Z,24.9
2019-01-12T04:31:02.715Z,24.25
2019-01-12T04:32:03.354Z,24.56
2019-01-12T04:33:03.103Z,25.5
2019-01-12T04:34:03.402Z,27.19
2019-01-12T04:35:03.483Z,24.61
2019-01-12T04:36:02.906Z,22.93
2019-01-12T04:37:02.971Z,23.35
2019-01-12T04:38:02.966Z,24.42
2019-01-12T04:39:03.168Z,25.41
2019-01-12T04:40:03.247Z,25.41
2019-01-12T04:41:03.038Z,22.23
2019-01-12T04:42:02.911Z,22.23
2019-01-12T04:43:02.769Z,25.85
2019-01-12T04:44:02.570Z,26.9
2019-01-12T04:45:02.970Z,26.35
2019-01-12T04:46:02.967Z,25.55
2019-01-12T04:47:03.255Z,22.56
2019-01-12T04:48:02.618Z,23.38
2019-01-12T04:49:02.961Z,23.39
2019-01-12T04:50:02.883Z,27.12
2019-01-12T04:51:02.772Z,25.59
2019-01-12T04:52:02.830Z,24.09
2019-01-12T04:53:02.996Z,28.55
2019-01-12T04:54:02.582Z,23.35
2019-01-12T04:55:02.706Z,23.91
2019-01-12T04:56:02.844Z,26.02
2019-01-12T04:57:02.652Z,23.93
2019-01-12T04:58:02.560Z,29.11
2019-01-12T04:59:03.012Z,26.06
2019-01-12T05:00:02.957Z,23.1
2019-01-12T05:01:03.040Z,23.62
2019-01-12T05:02:03.478Z,23.28
2019-01-12T05:03:03.116Z,23.32
2019-01-12T05:04:02.723Z,24.44
2019-01-12T05:05:02.910Z,22.99
2019-01-12T05:06:02.561Z,24.86
2019-01-12T05:07:02.928Z,22.21
2019-01-12T05:08:03.298Z,23.15
2019-01-12T05:09:03.008Z,28.46
2019-01-12T05:10:03.547Z,28.12
2019-01-12T05:11:03.533Z,25.31
2019-01-12T05:12:03.449Z,24.31
2019-01-12T05:13:02.803Z,23.37
2019-01-12T05:14:02.665Z,22.34
2019-01-12T05:15:03.125Z,23.31
2019-01-12T05:16:03.282Z,23.19
2019-01-12T05:17:02.813Z,21.78
2019-01-12T05:18:03.141Z,23.38
2019-01-12T05:19:02.716Z,26.58
2019-01-12T05:20:02.853Z,24.16
2019-01-12T05:21:03.005Z,23.45
2019-01-12T05:22:03.385Z,25.39
2019-01-12T05:23:02.929Z,23.36
2019-01-12T05:24:03.565Z,25.05
2019-01-12T05:25:03.126Z,24.27
2019-01-12T05:26:02.571Z,28.36
2019-01-12T05:27:02.690Z,25.08
2019-01-12T05:28:02.942Z,25.08
2019-01-12T05:29:02.716Z,24.74
2019-01-12T05:30:02.669Z,25.64
2019-01-12T05:31:03.076Z,25.64
2019-01-12T05:32:03.302Z,27.62
2019-01-12T05:36:02.765Z,27.54
2019-01-12T05:37:03.054Z,24.5
2019-01-12T05:38:02.625Z,30.83
2019-01-12T05:39:02.596Z,28.03
2019-01-12T05:40:03.632Z,27.84
2019-01-12T05:41:02.674Z,30.13
2019-01-12T05:42:03.164Z,24.54
2019-01-12T05:43:03.163Z,33.06
2019-01-12T05:44:02.853Z,25.63
2019-01-12T05:45:03.334Z,33.09
2019-01-12T05:46:02.759Z,29.85
2019-01-12T05:47:02.952Z,26.52
2019-01-12T05:48:02.843Z,26.67
2019-01-12T05:49:03.635Z,32.42
2019-01-12T05:50:02.942Z,26.44
2019-01-12T05:51:03.234Z,31.11
2019-01-12T05:52:02.917Z,26.67
2019-01-12T05:53:02.974Z,30.33
2019-01-12T05:54:02.844Z,30.82
2019-01-12T05:55:03.159Z,27.39
2019-01-12T05:56:02.749Z,28.55
2019-01-12T05:57:02.847Z,29.51
2019-01-12T05:58:02.775Z,29.51
2019-01-12T05:59:02.726Z,25.36
2019-01-12T06:00:03.422Z,35.04
2019-01-12T06:01:02.901Z,25.13
2019-01-12T06:02:02.667Z,27.44
2019-01-12T06:03:03.322Z,30.04
2019-01-12T06:04:03.049Z,28.05
2019-01-12T06:05:03.209Z,29.86
2019-01-12T06:06:03.322Z,33.61
2019-01-12T06:07:03.244Z,29.49
2019-01-12T06:08:03.008Z,25.91
2019-01-12T06:09:03.242Z,31.14
2019-01-12T06:10:02.925Z,26.51
2019-01-12T06:11:03.491Z,27.07
2019-01-12T06:12:02.823Z,29.11
2019-01-12T06:13:03.200Z,26.04
2019-01-12T06:14:03.170Z,27.26
2019-01-12T06:15:02.794Z,28.09
2019-01-12T06:16:02.633Z,28.74
2019-01-12T06:17:02.663Z,25.42
2019-01-12T06:18:03.613Z,28.32
2019-01-12T06:19:03.087Z,26.16
2019-01-12T06:20:02.966Z,26.16
2019-01-12T06:21:02.984Z,26.95
2019-01-12T06:22:02.615Z,23.39
2019-01-12T06:23:02.443Z,23.39
2019-01-12T06:24:03.295Z,26.66
2019-01-12T06:25:03.173Z,22.74
2019-01-12T06:26:03.942Z,22.82
2019-01-12T06:27:03.004Z,25.09
2019-01-12T06:28:02.877Z,25.39
2019-01-12T06:29:02.938Z,27.7
2019-01-12T06:30:03.323Z,21.86
2019-01-12T06:31:03.496Z,22.46
2019-01-12T06:32:03.339Z,23.49
2019-01-12T06:33:02.729Z,28.26
2019-01-12T06:34:02.574Z,23.87
2019-01-12T06:35:02.707Z,26.86
2019-01-12T06:36:03.355Z,24.88
2019-01-12T06:37:02.879Z,27.92
2019-01-12T06:38:02.733Z,27.15
2019-01-12T06:39:03.315Z,29.06
2019-01-12T06:40:03.372Z,27.82
2019-01-12T06:41:03.403Z,27.04
2019-01-12T06:42:02.742Z,27.4
2019-01-12T06:43:03.310Z,25.39
2019-01-12T06:44:02.506Z,27.54
2019-01-12T06:45:02.871Z,23.68
2019-01-12T06:46:03.058Z,29.34
2019-01-12T06:47:03.368Z,27.26
2019-01-12T06:48:03.444Z,27.48
2019-01-12T06:49:03.320Z,27.07
2019-01-12T06:50:03.474Z,25.18
2019-01-12T06:51:02.754Z,25.05
2019-01-12T06:52:03.348Z,26.49
2019-01-12T06:53:03.263Z,23.61
2019-01-12T06:54:02.797Z,24.02
2019-01-12T06:55:03.480Z,21.7
2019-01-12T06:56:02.702Z,28.05
2019-01-12T06:57:02.664Z,21.59
2019-01-12T06:58:03.193Z,20.95
2019-01-12T06:59:03.437Z,26.18
2019-01-12T07:00:02.763Z,22.95
2019-01-12T07:01:02.943Z,26.22
2019-01-12T07:02:03.168Z,24.72
2019-01-12T07:03:03.075Z,24.58
2019-01-12T07:04:03.022Z,26.47
2019-01-12T07:05:03.492Z,29.61
2019-01-12T07:06:03.136Z,23.48
2019-01-12T07:07:02.878Z,25.01
2019-01-12T07:08:02.560Z,25.01
2019-01-12T07:09:02.665Z,29.54
2019-01-12T07:10:03.501Z,26.46
2019-01-12T07:11:03.071Z,25.34
2019-01-12T07:12:02.929Z,23.91
2019-01-12T07:13:03.241Z,26.41
2019-01-12T07:14:02.848Z,27.99
2019-01-12T07:15:03.417Z,24.64
2019-01-12T07:16:02.774Z,27.38
2019-01-12T07:17:03.076Z,26.18
2019-01-12T07:18:08.815Z,24.05
2019-01-12T07:19:02.954Z,24.72
2019-01-12T07:20:03.357Z,27.16
2019-01-12T07:21:02.544Z,24.72
2019-01-12T07:22:03.227Z,27.29
2019-01-12T07:23:02.866Z,25.58
2019-01-12T07:24:02.768Z,26.34
2019-01-12T07:25:03.405Z,24.93
2019-01-12T07:26:03.449Z,24.11
2019-01-12T07:27:02.904Z,22.55
2019-01-12T07:28:03.473Z,24.21
2019-01-12T07:29:03.396Z,24.12
2019-01-12T07:30:02.855Z,25.77
2019-01-12T07:31:03.357Z,23.94
2019-01-12T07:32:02.618Z,22.2
2019-01-12T07:33:02.837Z,25.61
2019-01-12T07:34:03.250Z,25.3
2019-01-12T07:35:02.837Z,26.99
2019-01-12T07:36:02.634Z,26.45
2019-01-12T07:37:03.241Z,26.26
2019-01-12T07:38:03.041Z,24.86
2019-01-12T07:39:02.985Z,28.67
2019-01-12T07:40:02.870Z,27.48
2019-01-12T07:41:02.782Z,28.21
2019-01-12T07:42:02.811Z,25.16
2019-01-12T07:43:03.048Z,31.2
2019-01-12T07:44:03.564Z,24.89
2019-01-12T07:45:02.517Z,26.08
2019-01-12T07:46:03.026Z,26.38
2019-01-12T07:47:03.440Z,23.78
2019-01-12T07:48:02.632Z,24.55
2019-01-12T07:49:02.425Z,25.06
2019-01-12T07:50:03.591Z,23.11
2019-01-12T07:51:02.996Z,22.61
2019-01-12T07:52:03.088Z,29.05
2019-01-12T07:53:02.689Z,24.59
2019-01-12T07:54:02.922Z,25.88
2019-01-12T07:55:03.460Z,23.45
2019-01-12T07:56:02.387Z,25.94
2019-01-12T07:57:03.368Z,27.42
2019-01-12T07:58:03.240Z,22.04
2019-01-12T07:59:02.705Z,24.18
2019-01-12T08:00:02.856Z,24.18
2019-01-12T08:01:03.198Z,22.32
2019-01-12T08:02:03.249Z,24.29
2019-01-12T08:03:03.210Z,24.29
2019-01-12T08:04:02.955Z,21.95
2019-01-12T08:05:03.508Z,23.94
2019-01-12T08:06:03.339Z,27.28
2019-01-12T08:07:03.324Z,22.24
2019-01-12T08:08:02.832Z,22.71
2019-01-12T08:09:02.702Z,22.32
2019-01-12T08:10:03.186Z,22.59
2019-01-12T08:11:03.578Z,21.15
2019-01-12T08:12:03.110Z,20.82
2019-01-12T08:13:03.089Z,19.49
2019-01-12T08:14:03.349Z,20.83
2019-01-12T08:15:02.917Z,21.44
2019-01-12T08:16:03.113Z,17.38
2019-01-12T08:17:03.013Z,18.79
2019-01-12T08:18:03.212Z,19.36
2019-01-12T08:19:03.119Z,20.04
2019-01-12T08:20:03.667Z,19.87
2019-01-12T08:21:02.738Z,19.66
2019-01-12T08:22:03.324Z,20.22
2019-01-12T08:23:02.765Z,19.61
2019-01-12T08:24:03.119Z,19.24
2019-01-12T08:25:03.509Z,21.38
2019-01-12T08:26:03.385Z,23.26
2019-01-12T08:27:03.353Z,22.09
2019-01-12T08:28:02.634Z,25.22
2019-01-12T08:29:02.650Z,27.18
2019-01-12T08:30:02.796Z,21.22
2019-01-12T08:31:02.663Z,21.36
2019-01-12T08:32:02.904Z,25.18
2019-01-12T08:33:03.721Z,23.04
2019-01-12T08:34:02.598Z,22.54
2019-01-12T08:35:03.062Z,22.31
2019-01-12T08:36:03.402Z,26.15
2019-01-12T08:37:02.997Z,24.34
2019-01-12T08:38:03.129Z,24.28
2019-01-12T08:39:02.691Z,25.06
2019-01-12T08:40:03.461Z,22.55
2019-01-12T08:41:03.136Z,24.78
2019-01-12T08:42:03.378Z,26.45
2019-01-12T08:43:03.260Z,24.39
2019-01-12T08:44:03.599Z,22.19
2019-01-12T08:45:03.193Z,18.83
2019-01-12T08:46:03.229Z,23.85
2019-01-12T08:47:02.883Z,21.84
2019-01-12T08:48:02.976Z,24.39
2019-01-12T08:49:03.673Z,24.39
2019-01-12T08:50:03.573Z,20.68
2019-01-12T08:51:02.765Z,19.63
2019-01-12T08:52:03.292Z,19.63
2019-01-12T08:53:02.614Z,25.04
2019-01-12T08:54:02.576Z,22.29
2019-01-12T08:55:03.139Z,23.7
2019-01-12T08:56:03.502Z,21
2019-01-12T08:57:03.329Z,24.7
2019-01-12T08:58:02.934Z,23.46
2019-01-12T08:59:03.246Z,26.75
2019-01-12T09:00:02.621Z,44.2
2019-01-12T09:01:03.138Z,32.07
2019-01-12T09:02:02.935Z,25.32
2019-01-12T09:03:03.332Z,23.13
2019-01-12T09:04:02.844Z,22.58
2019-01-12T09:05:03.160Z,25.61
2019-01-12T09:06:02.889Z,25.05
2019-01-12T09:07:03.525Z,28.87
2019-01-12T09:08:03.349Z,31
2019-01-12T09:09:03.267Z,25.51
2019-01-12T09:10:03.032Z,23.44
2019-01-12T09:11:03.361Z,24.76
2019-01-12T09:12:02.794Z,24.19
2019-01-12T09:13:02.836Z,27.53
2019-01-12T09:14:02.956Z,21.79
2019-01-12T09:15:03.544Z,22.42
2019-01-12T09:16:03.465Z,23.24
2019-01-12T09:17:02.878Z,23.91
2019-01-12T09:18:02.891Z,21.68
2019-01-12T09:19:03.432Z,22.27
2019-01-12T09:20:02.895Z,20.85
2019-01-12T09:21:03.458Z,20.45
2019-01-12T09:22:02.680Z,19.26
2019-01-12T09:23:02.908Z,20.47
2019-01-12T09:24:03.296Z,18.64
2019-01-12T09:25:03.089Z,29.46
2019-01-12T09:26:02.958Z,22.99
2019-01-12T09:27:02.744Z,21.88
2019-01-12T09:28:03.041Z,23.84
2019-01-12T09:29:03.517Z,21.41
2019-01-12T09:30:02.469Z,24.15
2019-01-12T09:31:03.416Z,20.09
2019-01-12T09:32:03.693Z,18.35
2019-01-12T09:33:02.817Z,21.5
2019-01-12T09:34:03.205Z,18.38
2019-01-12T09:35:03.580Z,19.76
2019-01-12T09:36:03.344Z,22.47
2019-01-12T09:37:03.138Z,18.91
2019-01-12T09:38:03.341Z,18.91
2019-01-12T09:39:02.974Z,17.38
2019-01-12T09:40:02.969Z,17.38
2019-01-12T09:41:03.005Z,16.88
2019-01-12T09:42:03.074Z,19.46
2019-01-12T09:43:03.170Z,19.46
2019-01-12T09:44:03.245Z,22.46
2019-01-12T09:45:02.946Z,19.49
2019-01-12T09:46:03.072Z,17.66
2019-01-12T09:47:02.863Z,17.71
2019-01-12T09:48:02.941Z,20.17
2019-01-12T09:49:02.802Z,19
2019-01-12T09:50:03.032Z,17.28
2019-01-12T09:51:02.818Z,17.78
2019-01-12T09:52:03.129Z,17.8
2019-01-12T09:53:03.384Z,18.79
2019-01-12T09:54:03.151Z,16.74
2019-01-12T09:55:03.400Z,18.69
2019-01-12T09:56:02.857Z,16.64
2019-01-12T09:57:02.735Z,15.05
2019-01-12T09:58:02.964Z,17.31
2019-01-12T09:59:03.280Z,15.23
2019-01-12T10:00:02.742Z,14.82
2019-01-12T10:01:03.421Z,15.6
2019-01-12T10:02:03.032Z,15.34
2019-01-12T10:03:03.050Z,15.31
2019-01-12T10:04:02.936Z,15.31
2019-01-12T10:05:03.620Z,14.16
2019-01-12T10:06:03.313Z,15.75
2019-01-12T10:07:02.615Z,18.23
2019-01-12T10:08:02.711Z,15.81
2019-01-12T10:09:02.589Z,16.22
2019-01-12T10:10:03.411Z,16.25
2019-01-12T10:11:02.781Z,13.33
2019-01-12T10:12:03.357Z,14.64
2019-01-12T10:13:03.570Z,16.95
2019-01-12T10:14:03.535Z,22.38
2019-01-12T10:15:03.137Z,16.05
2019-01-12T10:16:03.164Z,14.56
2019-01-12T10:17:02.921Z,15.84
2019-01-12T10:18:02.670Z,17.16
2019-01-12T10:19:02.623Z,17.49
2019-01-12T10:20:02.870Z,13.81
2019-01-12T10:21:02.504Z,16.33
2019-01-12T10:22:02.860Z,14.18
2019-01-12T10:23:03.237Z,15.79
2019-01-12T10:24:02.462Z,15.79
2019-01-12T10:25:02.989Z,14.56
2019-01-12T10:26:02.773Z,14.56
2019-01-12T10:27:02.849Z,15.48
2019-01-12T10:28:03.469Z,16.65
2019-01-12T10:29:03.178Z,15.72
2019-01-12T10:30:02.989Z,13.82
2019-01-12T10:31:02.717Z,15.22
2019-01-12T10:32:03.171Z,14.89
2019-01-12T10:33:02.910Z,14.35
2019-01-12T10:34:02.868Z,14.33
2019-01-12T10:35:03.351Z,15.18
2019-01-12T10:36:03.676Z,13.96
2019-01-12T10:37:02.725Z,14.35
2019-01-12T10:38:02.616Z,18.23
2019-01-12T10:39:02.754Z,12.73
2019-01-12T10:40:03.378Z,16.61
2019-01-12T10:41:03.421Z,16.13
2019-01-12T10:42:02.703Z,17.59
2019-01-12T10:43:03.540Z,17.73
2019-01-12T10:44:03.048Z,21.28
2019-01-12T10:45:04.622Z,16.56
2019-01-12T10:46:03.772Z,19.38
2019-01-12T10:47:02.469Z,20.32
2019-01-12T10:48:02.621Z,17.92
2019-01-12T10:49:02.937Z,16.68
2019-01-12T10:50:02.873Z,18.35
2019-01-12T10:51:03.193Z,18.36
2019-01-12T10:52:03.365Z,16.31
2019-01-12T10:53:02.786Z,16.96
2019-01-12T10:54:02.899Z,15.3
2019-01-12T10:55:03.082Z,16.21
2019-01-12T10:56:02.813Z,19.58
2019-01-12T10:57:05.530Z,17.6
2019-01-12T10:58:02.651Z,19.35
2019-01-12T10:59:02.724Z,16.04
2019-01-12T11:00:03.308Z,15.38
2019-01-12T11:01:03.033Z,16.51
2019-01-12T11:02:02.962Z,16.61
2019-01-12T11:03:03.207Z,16.2
2019-01-12T11:04:02.636Z,15.11
2019-01-12T11:05:03.387Z,18.05
2019-01-12T11:06:03.366Z,18.21
2019-01-12T11:07:02.923Z,19.28
2019-01-12T11:08:02.697Z,16.35
2019-01-12T11:09:03.213Z,16.48
2019-01-12T11:10:04.173Z,16.71
2019-01-12T11:11:02.654Z,18.01
2019-01-12T11:12:02.405Z,23.19
2019-01-12T11:13:03.064Z,19.9
2019-01-12T11:14:02.721Z,18.89
2019-01-12T11:15:02.994Z,18.89
2019-01-12T11:16:03.241Z,23.73
2019-01-12T11:17:03.089Z,24.55
2019-01-12T11:18:03.018Z,24.55
2019-01-12T11:19:02.819Z,17.82
2019-01-12T11:20:03.035Z,17.44
2019-01-12T11:21:03.417Z,18.03
2019-01-12T11:22:02.741Z,14.58
2019-01-12T11:23:03.114Z,18.2
2019-01-12T11:24:03.852Z,18.07
2019-01-12T11:25:03.326Z,19.03
2019-01-12T11:26:03.008Z,21.89
2019-01-12T11:27:03.216Z,20.96
2019-01-12T11:28:02.773Z,14.76
2019-01-12T11:29:02.900Z,16.53
2019-01-12T11:30:03.235Z,16.55
2019-01-12T11:31:02.946Z,19.6
2019-01-12T11:32:03.450Z,16.52
2019-01-12T11:33:03.224Z,15.85
2019-01-12T11:34:02.697Z,15.19
2019-01-12T11:35:03.534Z,15.22
2019-01-12T11:36:02.586Z,14.91
2019-01-12T11:37:03.149Z,14.45
2019-01-12T11:38:03.401Z,14.19
2019-01-12T11:39:03.163Z,14.02
2019-01-12T11:40:03.061Z,15.64
2019-01-12T11:41:03.257Z,17.33
2019-01-12T11:42:03.092Z,15.48
2019-01-12T11:43:02.732Z,15.95
2019-01-12T11:44:03.196Z,13.85
2019-01-12T11:45:03.284Z,15.84
2019-01-12T11:46:03.099Z,15.32
2019-01-12T11:47:02.733Z,16.76
2019-01-12T11:48:02.866Z,16.3
2019-01-12T11:49:03.294Z,15.96
2019-01-12T11:50:03.236Z,14.91
2019-01-12T11:51:02.680Z,14.63
2019-01-12T11:52:03.347Z,13.73
2019-01-12T11:53:03.258Z,14.48
2019-01-12T11:54:02.593Z,17.66
2019-01-12T11:55:03.303Z,18.89
2019-01-12T11:56:02.663Z,16.9
2019-01-12T11:57:03.178Z,17.78
2019-01-12T11:58:03.101Z,15.55
2019-01-12T11:59:02.901Z,18.67
2019-01-12T12:00:02.909Z,17.93
2019-01-12T12:01:02.681Z,20.99
2019-01-12T12:02:02.783Z,14.98
2019-01-12T12:03:03.385Z,13.22
2019-01-12T12:04:02.885Z,13.22
2019-01-12T12:05:02.796Z,13.11
2019-01-12T12:06:02.665Z,13.11
2019-01-12T12:07:02.853Z,13.56
2019-01-12T12:08:02.964Z,14.05
2019-01-12T12:09:02.666Z,11.92
2019-01-12T12:10:02.892Z,14.68
2019-01-12T12:11:02.865Z,14.04
2019-01-12T12:12:02.789Z,14.49
2019-01-12T12:13:03.125Z,13.58
2019-01-12T12:14:03.389Z,14.06
2019-01-12T12:15:03.512Z,17.65
2019-01-12T12:16:03.443Z,15.83
2019-01-12T12:17:03.321Z,15.04
2019-01-12T12:18:03.489Z,14.17
2019-01-12T12:19:03.414Z,18.29
2019-01-12T12:20:03.174Z,17.29
2019-01-12T12:21:03.458Z,16.16
2019-01-12T12:22:03.113Z,16.01
2019-01-12T12:23:02.797Z,15.92
2019-01-12T12:24:03.242Z,19.14
2019-01-12T12:25:02.807Z,15.91
2019-01-12T12:26:02.543Z,15.07
2019-01-12T12:27:02.682Z,14.27
2019-01-12T12:28:03.072Z,15.41
2019-01-12T12:29:03.510Z,17.09
2019-01-12T12:30:02.978Z,16.84
2019-01-12T12:31:02.864Z,20.04
2019-01-12T12:32:03.150Z,20.35
2019-01-12T12:33:02.652Z,18.56
2019-01-12T12:34:02.821Z,16.82
2019-01-12T12:35:02.673Z,16.25
2019-01-12T12:36:02.620Z,14.76
2019-01-12T12:37:02.710Z,18.18
2019-01-12T12:38:03.557Z,12.95
2019-01-12T12:39:03.307Z,14
2019-01-12T12:40:02.713Z,22.32
2019-01-12T12:41:03.301Z,19.09
2019-01-12T12:42:02.652Z,21.01
2019-01-12T12:43:03.016Z,12.61
2019-01-12T12:44:03.562Z,13.75
2019-01-12T12:45:03.771Z,14.3
2019-01-12T12:46:03.231Z,14.99
2019-01-12T12:47:02.959Z,15.11
2019-01-12T12:48:02.928Z,15.25
2019-01-12T12:49:03.371Z,14.43
2019-01-12T12:50:02.700Z,12.7
2019-01-12T12:51:02.688Z,12.61
2019-01-12T12:52:03.313Z,12.61
2019-01-12T12:53:02.869Z,14.76
2019-01-12T12:54:02.398Z,12.56
2019-01-12T12:55:02.845Z,14.31
2019-01-12T12:56:03.332Z,12.15
2019-01-12T12:57:02.810Z,13.44